sensor_id;sensor_type;location;lat;lon;timestamp;P1;durP1;ratioP1;P2;durP2;ratioP2
39370;SDS011;25099;51.946;4.838;2023-07-31T00:02:22;46.70;;;10.02;;
39370;SDS011;25099;51.946;4.838;2023-07-31T00:04:48;31.90;;;8.65;;
39370;SDS011;25099;51.946;4.838;2023-07-31T00:07:14;34.13;;;8.20;;
39370;SDS011;25099;51.946;4.838;2023-07-31T00:09:39;35.22;;;8.80;;
39370;SDS011;25099;51.946;4.838;2023-07-31T00:12:05;28.70;;;8.10;;
39370;SDS011;25099;51.946;4.838;2023-07-31T00:14:31;33.10;;;8.43;;
39370;SDS011;25099;51.946;4.838;2023-07-31T00:16:57;32.35;;;8.82;;
39370;SDS011;25099;51.946;4.838;2023-07-31T00:19:22;22.77;;;7.97;;
39370;SDS011;25099;51.946;4.838;2023-07-31T00:21:48;28.48;;;7.97;;
39370;SDS011;25099;51.946;4.838;2023-07-31T00:24:13;36.90;;;7.97;;
39370;SDS011;25099;51.946;4.838;2023-07-31T00:26:39;36.08;;;8.15;;
39370;SDS011;25099;51.946;4.838;2023-07-31T00:29:05;28.02;;;8.23;;
39370;SDS011;25099;51.946;4.838;2023-07-31T00:31:30;31.98;;;8.27;;
39370;SDS011;25099;51.946;4.838;2023-07-31T00:33:56;38.40;;;9.07;;
39370;SDS011;25099;51.946;4.838;2023-07-31T00:36:21;32.50;;;8.65;;
39370;SDS011;25099;51.946;4.838;2023-07-31T00:38:47;37.70;;;9.57;;
39370;SDS011;25099;51.946;4.838;2023-07-31T00:41:13;36.58;;;10.77;;
39370;SDS011;25099;51.946;4.838;2023-07-31T00:43:38;31.20;;;8.88;;
39370;SDS011;25099;51.946;4.838;2023-07-31T00:46:04;39.80;;;10.63;;
39370;SDS011;25099;51.946;4.838;2023-07-31T00:48:30;28.65;;;8.93;;
39370;SDS011;25099;51.946;4.838;2023-07-31T00:50:56;35.85;;;9.30;;
39370;SDS011;25099;51.946;4.838;2023-07-31T00:53:22;34.70;;;8.68;;
39370;SDS011;25099;51.946;4.838;2023-07-31T00:55:49;35.85;;;12.20;;
39370;SDS011;25099;51.946;4.838;2023-07-31T00:58:15;38.83;;;9.57;;
39370;SDS011;25099;51.946;4.838;2023-07-31T01:00:41;37.80;;;9.15;;
39370;SDS011;25099;51.946;4.838;2023-07-31T01:03:06;37.30;;;9.18;;
39370;SDS011;25099;51.946;4.838;2023-07-31T01:11:02;39.10;;;9.70;;
39370;SDS011;25099;51.946;4.838;2023-07-31T01:13:52;32.90;;;9.52;;
39370;SDS011;25099;51.946;4.838;2023-07-31T01:16:19;29.95;;;9.20;;
39370;SDS011;25099;51.946;4.838;2023-07-31T01:18:45;20.23;;;6.90;;
39370;SDS011;25099;51.946;4.838;2023-07-31T01:24:15;13.52;;;4.60;;
39370;SDS011;25099;51.946;4.838;2023-07-31T01:26:46;11.57;;;4.95;;
39370;SDS011;25099;51.946;4.838;2023-07-31T01:29:17;11.15;;;5.00;;
39370;SDS011;25099;51.946;4.838;2023-07-31T01:31:51;12.23;;;3.88;;
39370;SDS011;25099;51.946;4.838;2023-07-31T01:34:20;11.20;;;5.22;;
39370;SDS011;25099;51.946;4.838;2023-07-31T01:36:47;12.80;;;5.18;;
39370;SDS011;25099;51.946;4.838;2023-07-31T01:39:12;11.80;;;5.30;;
39370;SDS011;25099;51.946;4.838;2023-07-31T01:41:40;20.65;;;5.32;;
39370;SDS011;25099;51.946;4.838;2023-07-31T01:44:06;19.45;;;6.72;;
39370;SDS011;25099;51.946;4.838;2023-07-31T01:46:31;22.23;;;6.47;;
39370;SDS011;25099;51.946;4.838;2023-07-31T01:48:57;28.77;;;7.93;;
39370;SDS011;25099;51.946;4.838;2023-07-31T01:51:23;28.05;;;8.10;;
39370;SDS011;25099;51.946;4.838;2023-07-31T01:53:48;30.00;;;7.88;;
39370;SDS011;25099;51.946;4.838;2023-07-31T01:56:14;30.50;;;7.90;;
39370;SDS011;25099;51.946;4.838;2023-07-31T01:58:39;26.98;;;7.43;;
39370;SDS011;25099;51.946;4.838;2023-07-31T02:01:05;33.83;;;8.93;;
39370;SDS011;25099;51.946;4.838;2023-07-31T02:03:31;22.75;;;7.22;;
39370;SDS011;25099;51.946;4.838;2023-07-31T02:05:56;25.80;;;8.88;;
39370;SDS011;25099;51.946;4.838;2023-07-31T02:08:22;29.83;;;8.98;;
39370;SDS011;25099;51.946;4.838;2023-07-31T02:10:47;28.25;;;7.90;;
39370;SDS011;25099;51.946;4.838;2023-07-31T02:13:13;35.50;;;9.20;;
39370;SDS011;25099;51.946;4.838;2023-07-31T02:15:38;29.30;;;9.07;;
39370;SDS011;25099;51.946;4.838;2023-07-31T02:18:04;25.55;;;8.20;;
39370;SDS011;25099;51.946;4.838;2023-07-31T02:20:32;29.00;;;8.02;;
39370;SDS011;25099;51.946;4.838;2023-07-31T02:22:59;34.25;;;9.07;;
39370;SDS011;25099;51.946;4.838;2023-07-31T02:25:24;28.77;;;9.30;;
39370;SDS011;25099;51.946;4.838;2023-07-31T02:27:50;28.65;;;8.85;;
39370;SDS011;25099;51.946;4.838;2023-07-31T02:30:15;35.42;;;8.90;;
39370;SDS011;25099;51.946;4.838;2023-07-31T02:32:41;29.35;;;8.63;;
39370;SDS011;25099;51.946;4.838;2023-07-31T02:35:07;34.03;;;10.90;;
39370;SDS011;25099;51.946;4.838;2023-07-31T02:37:33;30.35;;;9.32;;
39370;SDS011;25099;51.946;4.838;2023-07-31T02:39:59;24.27;;;8.18;;
39370;SDS011;25099;51.946;4.838;2023-07-31T02:42:24;23.70;;;8.40;;
39370;SDS011;25099;51.946;4.838;2023-07-31T02:44:50;26.58;;;9.05;;
39370;SDS011;25099;51.946;4.838;2023-07-31T02:47:20;25.23;;;8.82;;
39370;SDS011;25099;51.946;4.838;2023-07-31T02:49:46;26.23;;;9.23;;
39370;SDS011;25099;51.946;4.838;2023-07-31T02:52:12;23.30;;;8.05;;
39370;SDS011;25099;51.946;4.838;2023-07-31T02:54:37;27.65;;;7.75;;
39370;SDS011;25099;51.946;4.838;2023-07-31T02:57:03;29.70;;;8.20;;
39370;SDS011;25099;51.946;4.838;2023-07-31T02:59:29;21.50;;;7.63;;
39370;SDS011;25099;51.946;4.838;2023-07-31T03:01:55;30.15;;;8.77;;
39370;SDS011;25099;51.946;4.838;2023-07-31T03:04:20;33.90;;;8.65;;
39370;SDS011;25099;51.946;4.838;2023-07-31T03:06:46;23.35;;;7.45;;
39370;SDS011;25099;51.946;4.838;2023-07-31T03:09:12;18.95;;;7.35;;
39370;SDS011;25099;51.946;4.838;2023-07-31T03:11:37;26.48;;;7.68;;
39370;SDS011;25099;51.946;4.838;2023-07-31T03:14:03;29.10;;;8.45;;
39370;SDS011;25099;51.946;4.838;2023-07-31T03:16:28;22.63;;;8.07;;
39370;SDS011;25099;51.946;4.838;2023-07-31T03:18:54;32.25;;;8.07;;
39370;SDS011;25099;51.946;4.838;2023-07-31T03:21:19;30.30;;;7.90;;
39370;SDS011;25099;51.946;4.838;2023-07-31T03:23:45;28.08;;;9.63;;
39370;SDS011;25099;51.946;4.838;2023-07-31T03:26:11;23.23;;;8.85;;
39370;SDS011;25099;51.946;4.838;2023-07-31T03:28:36;26.92;;;8.02;;
39370;SDS011;25099;51.946;4.838;2023-07-31T03:31:02;28.23;;;8.98;;
39370;SDS011;25099;51.946;4.838;2023-07-31T03:33:27;23.58;;;7.68;;
39370;SDS011;25099;51.946;4.838;2023-07-31T03:35:53;24.35;;;8.65;;
39370;SDS011;25099;51.946;4.838;2023-07-31T03:38:19;22.52;;;7.60;;
39370;SDS011;25099;51.946;4.838;2023-07-31T03:40:45;24.20;;;8.50;;
39370;SDS011;25099;51.946;4.838;2023-07-31T03:43:11;28.17;;;7.70;;
39370;SDS011;25099;51.946;4.838;2023-07-31T03:45:36;30.10;;;9.63;;
39370;SDS011;25099;51.946;4.838;2023-07-31T03:48:03;24.20;;;7.85;;
39370;SDS011;25099;51.946;4.838;2023-07-31T03:50:29;24.63;;;7.93;;
39370;SDS011;25099;51.946;4.838;2023-07-31T03:52:54;21.38;;;8.82;;
39370;SDS011;25099;51.946;4.838;2023-07-31T03:55:20;24.02;;;8.15;;
39370;SDS011;25099;51.946;4.838;2023-07-31T03:57:46;21.85;;;7.15;;
39370;SDS011;25099;51.946;4.838;2023-07-31T04:00:12;28.52;;;9.60;;
39370;SDS011;25099;51.946;4.838;2023-07-31T04:02:38;16.35;;;7.15;;
39370;SDS011;25099;51.946;4.838;2023-07-31T04:05:04;23.15;;;8.45;;
39370;SDS011;25099;51.946;4.838;2023-07-31T04:07:29;22.20;;;7.18;;
39370;SDS011;25099;51.946;4.838;2023-07-31T04:09:56;18.05;;;7.32;;
39370;SDS011;25099;51.946;4.838;2023-07-31T04:12:23;26.88;;;7.85;;
39370;SDS011;25099;51.946;4.838;2023-07-31T04:14:49;26.88;;;9.20;;
39370;SDS011;25099;51.946;4.838;2023-07-31T04:17:15;26.20;;;7.47;;
39370;SDS011;25099;51.946;4.838;2023-07-31T04:19:42;26.80;;;9.43;;
39370;SDS011;25099;51.946;4.838;2023-07-31T04:22:07;18.77;;;7.82;;
39370;SDS011;25099;51.946;4.838;2023-07-31T04:24:33;19.45;;;8.13;;
39370;SDS011;25099;51.946;4.838;2023-07-31T04:26:58;24.52;;;8.02;;
39370;SDS011;25099;51.946;4.838;2023-07-31T04:29:24;16.20;;;7.05;;
39370;SDS011;25099;51.946;4.838;2023-07-31T04:31:50;22.17;;;8.68;;
39370;SDS011;25099;51.946;4.838;2023-07-31T04:34:15;16.42;;;6.53;;
39370;SDS011;25099;51.946;4.838;2023-07-31T04:36:41;12.75;;;6.63;;
39370;SDS011;25099;51.946;4.838;2023-07-31T04:39:06;16.67;;;6.68;;
39370;SDS011;25099;51.946;4.838;2023-07-31T04:41:32;14.15;;;6.88;;
39370;SDS011;25099;51.946;4.838;2023-07-31T04:43:57;16.38;;;6.88;;
39370;SDS011;25099;51.946;4.838;2023-07-31T04:46:23;19.00;;;8.02;;
39370;SDS011;25099;51.946;4.838;2023-07-31T04:48:49;16.65;;;6.72;;
39370;SDS011;25099;51.946;4.838;2023-07-31T04:51:14;16.08;;;5.95;;
39370;SDS011;25099;51.946;4.838;2023-07-31T04:53:40;11.57;;;6.40;;
39370;SDS011;25099;51.946;4.838;2023-07-31T04:56:05;14.18;;;6.43;;
39370;SDS011;25099;51.946;4.838;2023-07-31T04:58:31;15.18;;;6.30;;
39370;SDS011;25099;51.946;4.838;2023-07-31T05:00:56;15.23;;;6.13;;
39370;SDS011;25099;51.946;4.838;2023-07-31T05:03:22;14.45;;;6.60;;
39370;SDS011;25099;51.946;4.838;2023-07-31T05:05:47;16.35;;;6.40;;
39370;SDS011;25099;51.946;4.838;2023-07-31T05:08:14;10.82;;;5.78;;
39370;SDS011;25099;51.946;4.838;2023-07-31T05:10:42;12.35;;;5.95;;
39370;SDS011;25099;51.946;4.838;2023-07-31T05:13:08;10.60;;;5.95;;
39370;SDS011;25099;51.946;4.838;2023-07-31T05:15:33;13.13;;;6.18;;
39370;SDS011;25099;51.946;4.838;2023-07-31T05:17:59;21.48;;;6.80;;
39370;SDS011;25099;51.946;4.838;2023-07-31T05:20:24;20.38;;;5.57;;
39370;SDS011;25099;51.946;4.838;2023-07-31T05:22:50;11.50;;;5.80;;
39370;SDS011;25099;51.946;4.838;2023-07-31T05:25:16;12.73;;;6.18;;
39370;SDS011;25099;51.946;4.838;2023-07-31T05:27:42;13.63;;;6.40;;
39370;SDS011;25099;51.946;4.838;2023-07-31T05:30:07;15.60;;;6.65;;
39370;SDS011;25099;51.946;4.838;2023-07-31T05:32:33;13.85;;;6.30;;
39370;SDS011;25099;51.946;4.838;2023-07-31T05:34:59;10.05;;;5.55;;
39370;SDS011;25099;51.946;4.838;2023-07-31T05:37:25;15.40;;;6.03;;
39370;SDS011;25099;51.946;4.838;2023-07-31T05:39:50;8.35;;;5.00;;
39370;SDS011;25099;51.946;4.838;2023-07-31T05:42:17;12.55;;;5.88;;
39370;SDS011;25099;51.946;4.838;2023-07-31T05:44:42;9.23;;;4.55;;
39370;SDS011;25099;51.946;4.838;2023-07-31T05:47:08;8.95;;;4.57;;
39370;SDS011;25099;51.946;4.838;2023-07-31T05:49:34;10.02;;;4.85;;
39370;SDS011;25099;51.946;4.838;2023-07-31T05:52:00;8.60;;;4.28;;
39370;SDS011;25099;51.946;4.838;2023-07-31T05:54:25;9.35;;;4.38;;
39370;SDS011;25099;51.946;4.838;2023-07-31T05:56:51;11.07;;;4.80;;
39370;SDS011;25099;51.946;4.838;2023-07-31T05:59:17;5.25;;;4.00;;
39370;SDS011;25099;51.946;4.838;2023-07-31T06:01:42;8.00;;;4.50;;
39370;SDS011;25099;51.946;4.838;2023-07-31T06:04:08;7.53;;;3.75;;
39370;SDS011;25099;51.946;4.838;2023-07-31T06:06:33;9.43;;;4.63;;
39370;SDS011;25099;51.946;4.838;2023-07-31T06:08:59;7.97;;;5.22;;
39370;SDS011;25099;51.946;4.838;2023-07-31T06:11:25;7.07;;;4.15;;
39370;SDS011;25099;51.946;4.838;2023-07-31T06:13:50;13.77;;;4.70;;
39370;SDS011;25099;51.946;4.838;2023-07-31T06:16:16;10.00;;;5.30;;
39370;SDS011;25099;51.946;4.838;2023-07-31T06:18:42;11.15;;;5.40;;
39370;SDS011;25099;51.946;4.838;2023-07-31T06:21:08;8.55;;;5.05;;
39370;SDS011;25099;51.946;4.838;2023-07-31T06:23:34;8.40;;;5.22;;
39370;SDS011;25099;51.946;4.838;2023-07-31T06:26:00;8.38;;;4.60;;
39370;SDS011;25099;51.946;4.838;2023-07-31T06:28:28;11.48;;;5.43;;
39370;SDS011;25099;51.946;4.838;2023-07-31T06:30:55;6.47;;;4.40;;
39370;SDS011;25099;51.946;4.838;2023-07-31T06:33:21;6.88;;;4.50;;
39370;SDS011;25099;51.946;4.838;2023-07-31T06:35:46;7.72;;;4.57;;
39370;SDS011;25099;51.946;4.838;2023-07-31T06:38:12;7.10;;;4.15;;
39370;SDS011;25099;51.946;4.838;2023-07-31T06:40:37;6.80;;;4.25;;
39370;SDS011;25099;51.946;4.838;2023-07-31T06:43:03;10.75;;;4.45;;
39370;SDS011;25099;51.946;4.838;2023-07-31T06:45:36;6.85;;;3.55;;
39370;SDS011;25099;51.946;4.838;2023-07-31T06:48:03;9.45;;;4.03;;
39370;SDS011;25099;51.946;4.838;2023-07-31T06:50:29;9.10;;;4.38;;
39370;SDS011;25099;51.946;4.838;2023-07-31T06:52:56;6.20;;;3.63;;
39370;SDS011;25099;51.946;4.838;2023-07-31T06:55:23;9.13;;;4.15;;
39370;SDS011;25099;51.946;4.838;2023-07-31T06:57:52;7.88;;;4.15;;
39370;SDS011;25099;51.946;4.838;2023-07-31T07:00:19;7.00;;;3.83;;
39370;SDS011;25099;51.946;4.838;2023-07-31T07:02:45;7.90;;;4.03;;
39370;SDS011;25099;51.946;4.838;2023-07-31T07:05:13;7.78;;;4.00;;
39370;SDS011;25099;51.946;4.838;2023-07-31T07:07:40;11.07;;;4.13;;
39370;SDS011;25099;51.946;4.838;2023-07-31T07:10:06;7.07;;;3.75;;
39370;SDS011;25099;51.946;4.838;2023-07-31T07:12:32;7.00;;;3.30;;
39370;SDS011;25099;51.946;4.838;2023-07-31T07:15:01;6.40;;;3.47;;
39370;SDS011;25099;51.946;4.838;2023-07-31T07:17:28;3.65;;;3.20;;
39370;SDS011;25099;51.946;4.838;2023-07-31T07:19:57;2.78;;;2.55;;
39370;SDS011;25099;51.946;4.838;2023-07-31T07:22:24;4.97;;;2.78;;
39370;SDS011;25099;51.946;4.838;2023-07-31T07:24:50;4.65;;;3.05;;
39370;SDS011;25099;51.946;4.838;2023-07-31T07:27:16;4.78;;;2.95;;
39370;SDS011;25099;51.946;4.838;2023-07-31T07:29:41;4.95;;;2.50;;
39370;SDS011;25099;51.946;4.838;2023-07-31T07:32:07;3.33;;;2.60;;
39370;SDS011;25099;51.946;4.838;2023-07-31T07:34:33;6.20;;;2.63;;
39370;SDS011;25099;51.946;4.838;2023-07-31T07:36:58;4.95;;;2.80;;
39370;SDS011;25099;51.946;4.838;2023-07-31T07:39:30;3.75;;;2.97;;
39370;SDS011;25099;51.946;4.838;2023-07-31T07:42:01;4.88;;;2.75;;
39370;SDS011;25099;51.946;4.838;2023-07-31T07:44:40;2.67;;;2.05;;
39370;SDS011;25099;51.946;4.838;2023-07-31T07:47:17;2.90;;;2.15;;
39370;SDS011;25099;51.946;4.838;2023-07-31T07:49:57;2.85;;;2.20;;
39370;SDS011;25099;51.946;4.838;2023-07-31T07:52:41;2.72;;;1.77;;
39370;SDS011;25099;51.946;4.838;2023-07-31T07:55:19;2.88;;;2.20;;
39370;SDS011;25099;51.946;4.838;2023-07-31T07:57:54;3.65;;;1.98;;
39370;SDS011;25099;51.946;4.838;2023-07-31T08:00:28;2.10;;;1.83;;
39370;SDS011;25099;51.946;4.838;2023-07-31T08:02:56;2.00;;;1.85;;
39370;SDS011;25099;51.946;4.838;2023-07-31T08:05:29;2.28;;;1.88;;
39370;SDS011;25099;51.946;4.838;2023-07-31T08:07:59;1.88;;;1.77;;
39370;SDS011;25099;51.946;4.838;2023-07-31T08:10:24;2.88;;;1.80;;
39370;SDS011;25099;51.946;4.838;2023-07-31T08:15:24;3.72;;;2.00;;
39370;SDS011;25099;51.946;4.838;2023-07-31T08:17:55;2.83;;;2.40;;
39370;SDS011;25099;51.946;4.838;2023-07-31T08:20:24;2.60;;;2.10;;
39370;SDS011;25099;51.946;4.838;2023-07-31T08:22:51;2.42;;;2.22;;
39370;SDS011;25099;51.946;4.838;2023-07-31T08:25:21;2.42;;;2.22;;
39370;SDS011;25099;51.946;4.838;2023-07-31T08:27:52;2.70;;;2.40;;
39370;SDS011;25099;51.946;4.838;2023-07-31T08:30:28;3.03;;;2.30;;
39370;SDS011;25099;51.946;4.838;2023-07-31T08:32:55;6.68;;;2.70;;
39370;SDS011;25099;51.946;4.838;2023-07-31T08:35:27;3.28;;;2.50;;
39370;SDS011;25099;51.946;4.838;2023-07-31T08:37:55;3.08;;;2.60;;
39370;SDS011;25099;51.946;4.838;2023-07-31T08:40:23;3.40;;;2.50;;
39370;SDS011;25099;51.946;4.838;2023-07-31T08:42:58;2.90;;;2.20;;
39370;SDS011;25099;51.946;4.838;2023-07-31T08:45:36;3.05;;;2.20;;
39370;SDS011;25099;51.946;4.838;2023-07-31T08:48:02;2.97;;;2.40;;
39370;SDS011;25099;51.946;4.838;2023-07-31T08:50:43;5.70;;;2.50;;
39370;SDS011;25099;51.946;4.838;2023-07-31T08:53:08;2.88;;;2.60;;
39370;SDS011;25099;51.946;4.838;2023-07-31T08:55:35;2.83;;;2.50;;
39370;SDS011;25099;51.946;4.838;2023-07-31T08:58:02;3.15;;;2.95;;
39370;SDS011;25099;51.946;4.838;2023-07-31T09:00:29;3.90;;;3.50;;
39370;SDS011;25099;51.946;4.838;2023-07-31T09:03:01;5.95;;;3.33;;
39370;SDS011;25099;51.946;4.838;2023-07-31T09:05:29;3.55;;;3.15;;
39370;SDS011;25099;51.946;4.838;2023-07-31T09:07:55;3.13;;;2.80;;
39370;SDS011;25099;51.946;4.838;2023-07-31T09:10:22;6.00;;;3.50;;
39370;SDS011;25099;51.946;4.838;2023-07-31T09:12:48;4.28;;;3.88;;
39370;SDS011;25099;51.946;4.838;2023-07-31T09:15:16;3.42;;;3.13;;
39370;SDS011;25099;51.946;4.838;2023-07-31T09:17:42;2.85;;;2.60;;
39370;SDS011;25099;51.946;4.838;2023-07-31T09:20:20;4.00;;;3.35;;
39370;SDS011;25099;51.946;4.838;2023-07-31T09:22:46;3.55;;;3.25;;
39370;SDS011;25099;51.946;4.838;2023-07-31T09:25:17;3.60;;;3.30;;
39370;SDS011;25099;51.946;4.838;2023-07-31T09:30:16;3.35;;;3.13;;
39370;SDS011;25099;51.946;4.838;2023-07-31T09:32:43;4.28;;;3.95;;
39370;SDS011;25099;51.946;4.838;2023-07-31T09:37:50;4.60;;;4.20;;
39370;SDS011;25099;51.946;4.838;2023-07-31T09:40:27;6.75;;;4.47;;
39370;SDS011;25099;51.946;4.838;2023-07-31T09:42:57;5.85;;;5.13;;
39370;SDS011;25099;51.946;4.838;2023-07-31T09:45:24;5.28;;;4.78;;
39370;SDS011;25099;51.946;4.838;2023-07-31T09:47:51;7.03;;;5.15;;
39370;SDS011;25099;51.946;4.838;2023-07-31T09:50:17;5.97;;;5.38;;
39370;SDS011;25099;51.946;4.838;2023-07-31T09:52:44;5.55;;;4.50;;
39370;SDS011;25099;51.946;4.838;2023-07-31T09:55:10;6.13;;;5.40;;
39370;SDS011;25099;51.946;4.838;2023-07-31T09:57:44;8.10;;;4.47;;
39370;SDS011;25099;51.946;4.838;2023-07-31T10:00:14;6.55;;;4.82;;
39370;SDS011;25099;51.946;4.838;2023-07-31T10:02:42;5.32;;;4.82;;
39370;SDS011;25099;51.946;4.838;2023-07-31T10:05:10;5.47;;;4.97;;
39370;SDS011;25099;51.946;4.838;2023-07-31T10:07:45;6.43;;;4.93;;
39370;SDS011;25099;51.946;4.838;2023-07-31T10:10:16;5.80;;;4.70;;
39370;SDS011;25099;51.946;4.838;2023-07-31T10:12:45;6.05;;;5.38;;
39370;SDS011;25099;51.946;4.838;2023-07-31T10:15:11;5.45;;;4.95;;
39370;SDS011;25099;51.946;4.838;2023-07-31T10:17:37;4.28;;;3.97;;
39370;SDS011;25099;51.946;4.838;2023-07-31T10:20:03;4.60;;;4.30;;
39370;SDS011;25099;51.946;4.838;2023-07-31T10:22:31;3.60;;;3.20;;
39370;SDS011;25099;51.946;4.838;2023-07-31T10:24:59;3.03;;;2.83;;
39370;SDS011;25099;51.946;4.838;2023-07-31T10:27:26;3.42;;;2.40;;
39370;SDS011;25099;51.946;4.838;2023-07-31T10:29:53;2.85;;;1.70;;
39370;SDS011;25099;51.946;4.838;2023-07-31T10:32:20;2.63;;;2.25;;
39370;SDS011;25099;51.946;4.838;2023-07-31T10:34:46;3.25;;;2.75;;
39370;SDS011;25099;51.946;4.838;2023-07-31T10:39:55;3.30;;;2.90;;
39370;SDS011;25099;51.946;4.838;2023-07-31T10:42:37;4.75;;;3.28;;
39370;SDS011;25099;51.946;4.838;2023-07-31T10:45:09;6.25;;;3.33;;
39370;SDS011;25099;51.946;4.838;2023-07-31T10:47:39;4.03;;;3.15;;
39370;SDS011;25099;51.946;4.838;2023-07-31T10:52:50;5.30;;;3.38;;
39370;SDS011;25099;51.946;4.838;2023-07-31T10:55:24;5.32;;;3.92;;
39370;SDS011;25099;51.946;4.838;2023-07-31T10:57:55;4.25;;;3.75;;
39370;SDS011;25099;51.946;4.838;2023-07-31T11:00:23;4.28;;;3.88;;
39370;SDS011;25099;51.946;4.838;2023-07-31T11:05:43;6.60;;;5.10;;
39370;SDS011;25099;51.946;4.838;2023-07-31T11:08:23;5.00;;;4.43;;
39370;SDS011;25099;51.946;4.838;2023-07-31T11:10:51;6.38;;;4.57;;
39370;SDS011;25099;51.946;4.838;2023-07-31T11:13:29;5.88;;;5.35;;
39370;SDS011;25099;51.946;4.838;2023-07-31T11:15:58;7.15;;;5.72;;
39370;SDS011;25099;51.946;4.838;2023-07-31T11:18:24;6.72;;;5.80;;
39370;SDS011;25099;51.946;4.838;2023-07-31T11:20:52;10.15;;;5.78;;
39370;SDS011;25099;51.946;4.838;2023-07-31T11:23:18;6.95;;;5.90;;
39370;SDS011;25099;51.946;4.838;2023-07-31T11:25:44;7.28;;;6.28;;
39370;SDS011;25099;51.946;4.838;2023-07-31T11:28:11;6.32;;;5.72;;
39370;SDS011;25099;51.946;4.838;2023-07-31T11:30:38;5.90;;;5.40;;
39370;SDS011;25099;51.946;4.838;2023-07-31T11:33:08;6.50;;;5.75;;
39370;SDS011;25099;51.946;4.838;2023-07-31T11:35:40;5.75;;;5.22;;
39370;SDS011;25099;51.946;4.838;2023-07-31T11:38:10;5.60;;;4.78;;
39370;SDS011;25099;51.946;4.838;2023-07-31T11:40:49;4.95;;;4.35;;
39370;SDS011;25099;51.946;4.838;2023-07-31T11:43:15;4.57;;;4.18;;
39370;SDS011;25099;51.946;4.838;2023-07-31T11:45:47;5.82;;;4.70;;
39370;SDS011;25099;51.946;4.838;2023-07-31T11:48:24;6.30;;;5.18;;
39370;SDS011;25099;51.946;4.838;2023-07-31T11:50:52;4.65;;;4.28;;
39370;SDS011;25099;51.946;4.838;2023-07-31T11:56:00;4.65;;;4.25;;
39370;SDS011;25099;51.946;4.838;2023-07-31T11:58:29;5.40;;;4.70;;
39370;SDS011;25099;51.946;4.838;2023-07-31T12:00:56;5.05;;;4.47;;
39370;SDS011;25099;51.946;4.838;2023-07-31T12:03:22;5.30;;;4.80;;
39370;SDS011;25099;51.946;4.838;2023-07-31T12:05:48;4.60;;;4.20;;
39370;SDS011;25099;51.946;4.838;2023-07-31T12:08:14;5.20;;;4.57;;
39370;SDS011;25099;51.946;4.838;2023-07-31T12:10:41;5.00;;;4.60;;
39370;SDS011;25099;51.946;4.838;2023-07-31T12:13:11;5.50;;;4.97;;
39370;SDS011;25099;51.946;4.838;2023-07-31T12:15:40;5.22;;;4.72;;
39370;SDS011;25099;51.946;4.838;2023-07-31T12:18:09;5.43;;;5.03;;
39370;SDS011;25099;51.946;4.838;2023-07-31T12:20:39;4.63;;;4.07;;
39370;SDS011;25099;51.946;4.838;2023-07-31T12:23:17;5.43;;;4.88;;
39370;SDS011;25099;51.946;4.838;2023-07-31T12:25:44;4.80;;;4.25;;
39370;SDS011;25099;51.946;4.838;2023-07-31T12:28:10;6.22;;;4.80;;
39370;SDS011;25099;51.946;4.838;2023-07-31T12:30:39;5.05;;;4.65;;
39370;SDS011;25099;51.946;4.838;2023-07-31T12:33:06;6.05;;;4.38;;
39370;SDS011;25099;51.946;4.838;2023-07-31T12:35:38;6.13;;;4.10;;
39370;SDS011;25099;51.946;4.838;2023-07-31T12:38:05;4.50;;;4.10;;
39370;SDS011;25099;51.946;4.838;2023-07-31T12:40:31;4.65;;;4.20;;
39370;SDS011;25099;51.946;4.838;2023-07-31T12:42:57;4.60;;;4.30;;
39370;SDS011;25099;51.946;4.838;2023-07-31T12:45:27;4.90;;;4.40;;
39370;SDS011;25099;51.946;4.838;2023-07-31T12:47:53;4.25;;;3.95;;
39370;SDS011;25099;51.946;4.838;2023-07-31T12:50:18;3.97;;;3.58;;
39370;SDS011;25099;51.946;4.838;2023-07-31T12:52:44;5.32;;;2.80;;
39370;SDS011;25099;51.946;4.838;2023-07-31T12:55:09;3.45;;;3.15;;
39370;SDS011;25099;51.946;4.838;2023-07-31T12:57:36;3.00;;;2.80;;
39370;SDS011;25099;51.946;4.838;2023-07-31T13:00:02;3.10;;;2.63;;
39370;SDS011;25099;51.946;4.838;2023-07-31T13:02:28;3.35;;;3.05;;
39370;SDS011;25099;51.946;4.838;2023-07-31T13:04:54;4.05;;;3.75;;
39370;SDS011;25099;51.946;4.838;2023-07-31T13:07:21;3.83;;;3.53;;
39370;SDS011;25099;51.946;4.838;2023-07-31T13:09:47;3.65;;;3.35;;
39370;SDS011;25099;51.946;4.838;2023-07-31T13:12:13;3.97;;;3.08;;
39370;SDS011;25099;51.946;4.838;2023-07-31T13:14:38;5.30;;;3.28;;
39370;SDS011;25099;51.946;4.838;2023-07-31T13:17:04;5.07;;;3.17;;
39370;SDS011;25099;51.946;4.838;2023-07-31T13:19:29;3.20;;;2.78;;
39370;SDS011;25099;51.946;4.838;2023-07-31T13:21:55;2.58;;;2.38;;
39370;SDS011;25099;51.946;4.838;2023-07-31T13:24:20;2.75;;;2.55;;
39370;SDS011;25099;51.946;4.838;2023-07-31T13:26:46;1.98;;;1.85;;
39370;SDS011;25099;51.946;4.838;2023-07-31T13:29:11;2.97;;;2.60;;
39370;SDS011;25099;51.946;4.838;2023-07-31T13:31:37;6.68;;;3.17;;
39370;SDS011;25099;51.946;4.838;2023-07-31T13:34:02;3.67;;;3.17;;
39370;SDS011;25099;51.946;4.838;2023-07-31T13:36:28;5.35;;;3.47;;
39370;SDS011;25099;51.946;4.838;2023-07-31T13:38:54;3.03;;;2.80;;
39370;SDS011;25099;51.946;4.838;2023-07-31T13:41:20;5.32;;;3.40;;
39370;SDS011;25099;51.946;4.838;2023-07-31T13:43:45;2.72;;;2.40;;
39370;SDS011;25099;51.946;4.838;2023-07-31T13:46:11;2.22;;;2.13;;
39370;SDS011;25099;51.946;4.838;2023-07-31T13:48:36;3.70;;;2.50;;
39370;SDS011;25099;51.946;4.838;2023-07-31T13:51:02;3.47;;;2.33;;
39370;SDS011;25099;51.946;4.838;2023-07-31T13:53:28;2.72;;;2.00;;
39370;SDS011;25099;51.946;4.838;2023-07-31T13:55:54;3.20;;;2.30;;
39370;SDS011;25099;51.946;4.838;2023-07-31T13:58:20;6.18;;;2.67;;
39370;SDS011;25099;51.946;4.838;2023-07-31T14:00:46;4.20;;;2.35;;
39370;SDS011;25099;51.946;4.838;2023-07-31T14:03:11;3.40;;;2.67;;
39370;SDS011;25099;51.946;4.838;2023-07-31T14:05:37;4.30;;;3.10;;
39370;SDS011;25099;51.946;4.838;2023-07-31T14:08:03;4.78;;;3.72;;
39370;SDS011;25099;51.946;4.838;2023-07-31T14:10:28;3.28;;;2.97;;
39370;SDS011;25099;51.946;4.838;2023-07-31T14:12:54;2.88;;;2.45;;
39370;SDS011;25099;51.946;4.838;2023-07-31T14:15:20;2.63;;;2.05;;
39370;SDS011;25099;51.946;4.838;2023-07-31T14:17:45;2.80;;;2.47;;
39370;SDS011;25099;51.946;4.838;2023-07-31T14:20:11;5.38;;;3.00;;
39370;SDS011;25099;51.946;4.838;2023-07-31T14:22:37;6.22;;;3.22;;
39370;SDS011;25099;51.946;4.838;2023-07-31T14:25:03;3.95;;;3.60;;
39370;SDS011;25099;51.946;4.838;2023-07-31T14:27:29;5.22;;;4.47;;
39370;SDS011;25099;51.946;4.838;2023-07-31T14:29:54;5.65;;;4.13;;
39370;SDS011;25099;51.946;4.838;2023-07-31T14:32:21;8.98;;;5.28;;
39370;SDS011;25099;51.946;4.838;2023-07-31T14:34:48;7.60;;;5.10;;
39370;SDS011;25099;51.946;4.838;2023-07-31T14:37:14;6.88;;;5.50;;
39370;SDS011;25099;51.946;4.838;2023-07-31T14:39:39;7.10;;;6.50;;
39370;SDS011;25099;51.946;4.838;2023-07-31T14:42:05;5.82;;;5.32;;
39370;SDS011;25099;51.946;4.838;2023-07-31T14:44:31;6.53;;;5.65;;
39370;SDS011;25099;51.946;4.838;2023-07-31T14:46:56;6.88;;;6.18;;
39370;SDS011;25099;51.946;4.838;2023-07-31T14:49:22;7.15;;;6.50;;
39370;SDS011;25099;51.946;4.838;2023-07-31T14:51:47;6.90;;;6.20;;
39370;SDS011;25099;51.946;4.838;2023-07-31T14:54:13;6.65;;;6.05;;
39370;SDS011;25099;51.946;4.838;2023-07-31T14:56:38;4.95;;;4.55;;
39370;SDS011;25099;51.946;4.838;2023-07-31T14:59:04;5.82;;;5.07;;
39370;SDS011;25099;51.946;4.838;2023-07-31T15:01:29;5.50;;;5.00;;
39370;SDS011;25099;51.946;4.838;2023-07-31T15:03:55;7.20;;;5.60;;
39370;SDS011;25099;51.946;4.838;2023-07-31T15:06:21;5.22;;;4.80;;
39370;SDS011;25099;51.946;4.838;2023-07-31T15:08:46;4.90;;;4.28;;
39370;SDS011;25099;51.946;4.838;2023-07-31T15:11:12;4.97;;;4.57;;